Skip Navigation Links Skip Navigation Links

Current Weather

Mc Carran Intl, Las Vegas, Nev.

For information only: do not use for flight planning or navigation.
Latest weather
Observation time Monday, June 21, 2021 5:56 PM PDT
Local time Monday, June 21, 2021 6:10 PM PDT
Flight conditions Visual Meteorological Conditions
Winds
Wind direction Southwest (220°)
Wind speed 18 mph
Wind gusting to 37 mph
Peak wind speed 37 mph, 5:52 PM
Peak wind direction West-Southwest (250°)
Visibility 10 mi.
Sky condition
Ceiling unlimited
Sky clear
Temperature 105°F
Dewpoint 24°F
Altimeter 29.76 in.Hg
Derived measurements
Relative humidity 6%
Heat index 105°F
Density altitude 5313 ft.
Sea-level pressure 29.66 in.Hg
Remarks
Automated weather observing station with precipitation discriminator.
METAR KLAS 220056Z 22016G32KT 10SM CLR 41/M04 A2976 RMK AO2 PK WND 25032/0052 SLP044 T04061044

Settings

Location code

InnerDrive.Weather 4.0.6770.0 Release CLR 4.0.30319.42000
Copyright ©2018 Inner Drive Technology. All rights reserved. Portions Copyright ©1986-2018 David Braverman.

Find weather

Site navigation


Skip Navigation Links

Place info

Page info

PayPal - The safer, easier way to pay online!

Return home.

Copyright ©2021 Inner Drive Technology. Purveyors of fine, hand-crafted computer software. Page printed 2021-06-22T01:10:52 UTC.